Risingsun, Ohio
Current Conditions -  °F | °C
As of 4:53 AM on Tuesday 27 Jan 2015 (Local Time) from KTDZ Reporting Station
Clear Clear  
Wind Chill:   Ceiling: Unl
Heat Index: 13°   Visibility: 8mi
Dew Point:   Wind: 6mph
Humidity: 77%   Direction: 10°N
Pressure: 29.99"   Gusts: NA
Location:  41.27°N, 83.42°W
Report Text: KTDZ 270953Z AUTO 01005KT 8SM CLR M11/M14 A2999 RMK AO2 SLP166 I1000 T11061139 TSNO
Loading
Personal Weather Stations






























Interactive Weather Map New forecast layout! Learn more

10-Day Weather Forecast

Advertisements
Track Severe Weather on mobile